sensor_id;sensor_type;location;lat;lon;timestamp;P1;durP1;ratioP1;P2;durP2;ratioP2
38611;SDS011;24368;52.156;20.788;2023-12-14T00:03:15;27.10;;;20.10;;
38611;SDS011;24368;52.156;20.788;2023-12-14T00:08:17;28.90;;;19.50;;
38611;SDS011;24368;52.156;20.788;2023-12-14T00:13:18;28.70;;;18.90;;
38611;SDS011;24368;52.156;20.788;2023-12-14T00:18:20;23.60;;;17.70;;
38611;SDS011;24368;52.156;20.788;2023-12-14T00:23:22;24.20;;;17.60;;
38611;SDS011;24368;52.156;20.788;2023-12-14T00:28:25;22.60;;;17.20;;
38611;SDS011;24368;52.156;20.788;2023-12-14T00:33:27;22.90;;;16.30;;
38611;SDS011;24368;52.156;20.788;2023-12-14T00:38:29;21.80;;;16.20;;
38611;SDS011;24368;52.156;20.788;2023-12-14T00:43:30;21.60;;;15.40;;
38611;SDS011;24368;52.156;20.788;2023-12-14T00:48:32;19.50;;;14.60;;
38611;SDS011;24368;52.156;20.788;2023-12-14T00:53:34;18.60;;;13.90;;
38611;SDS011;24368;52.156;20.788;2023-12-14T00:58:36;20.60;;;15.40;;
38611;SDS011;24368;52.156;20.788;2023-12-14T01:03:37;20.60;;;15.40;;
38611;SDS011;24368;52.156;20.788;2023-12-14T01:08:39;22.20;;;16.70;;
38611;SDS011;24368;52.156;20.788;2023-12-14T01:13:41;23.10;;;16.90;;
38611;SDS011;24368;52.156;20.788;2023-12-14T01:18:43;23.90;;;17.40;;
38611;SDS011;24368;52.156;20.788;2023-12-14T01:23:44;24.20;;;18.60;;
38611;SDS011;24368;52.156;20.788;2023-12-14T01:28:46;24.50;;;17.70;;
38611;SDS011;24368;52.156;20.788;2023-12-14T01:33:49;21.40;;;16.40;;
38611;SDS011;24368;52.156;20.788;2023-12-14T01:38:51;22.60;;;16.70;;
38611;SDS011;24368;52.156;20.788;2023-12-14T01:43:53;22.10;;;16.50;;
38611;SDS011;24368;52.156;20.788;2023-12-14T01:48:55;25.80;;;17.30;;
38611;SDS011;24368;52.156;20.788;2023-12-14T01:53:57;23.80;;;17.40;;
38611;SDS011;24368;52.156;20.788;2023-12-14T01:58:59;21.70;;;15.70;;
38611;SDS011;24368;52.156;20.788;2023-12-14T02:04:00;21.20;;;15.50;;
38611;SDS011;24368;52.156;20.788;2023-12-14T02:09:03;24.00;;;17.40;;
38611;SDS011;24368;52.156;20.788;2023-12-14T02:14:05;24.20;;;16.40;;
38611;SDS011;24368;52.156;20.788;2023-12-14T02:19:10;23.20;;;16.40;;
38611;SDS011;24368;52.156;20.788;2023-12-14T02:24:11;22.50;;;15.90;;
38611;SDS011;24368;52.156;20.788;2023-12-14T02:29:13;23.50;;;16.40;;
38611;SDS011;24368;52.156;20.788;2023-12-14T02:34:15;23.30;;;15.90;;
38611;SDS011;24368;52.156;20.788;2023-12-14T02:39:17;22.50;;;16.40;;
38611;SDS011;24368;52.156;20.788;2023-12-14T02:44:19;20.70;;;15.70;;
38611;SDS011;24368;52.156;20.788;2023-12-14T02:49:21;25.20;;;16.50;;
38611;SDS011;24368;52.156;20.788;2023-12-14T02:54:23;24.10;;;16.30;;
38611;SDS011;24368;52.156;20.788;2023-12-14T02:59:25;22.50;;;15.90;;
38611;SDS011;24368;52.156;20.788;2023-12-14T03:04:26;23.80;;;16.20;;
38611;SDS011;24368;52.156;20.788;2023-12-14T03:09:28;24.20;;;16.40;;
38611;SDS011;24368;52.156;20.788;2023-12-14T03:14:31;25.70;;;17.70;;
38611;SDS011;24368;52.156;20.788;2023-12-14T03:19:35;25.10;;;17.00;;
38611;SDS011;24368;52.156;20.788;2023-12-14T03:24:36;27.60;;;16.50;;
38611;SDS011;24368;52.156;20.788;2023-12-14T03:29:39;25.90;;;16.60;;
38611;SDS011;24368;52.156;20.788;2023-12-14T03:34:40;28.80;;;17.80;;
38611;SDS011;24368;52.156;20.788;2023-12-14T03:39:42;27.00;;;16.60;;
38611;SDS011;24368;52.156;20.788;2023-12-14T03:44:44;25.80;;;16.90;;
38611;SDS011;24368;52.156;20.788;2023-12-14T03:49:46;25.50;;;16.30;;
38611;SDS011;24368;52.156;20.788;2023-12-14T03:54:47;26.90;;;17.30;;
38611;SDS011;24368;52.156;20.788;2023-12-14T03:59:49;23.80;;;15.50;;
38611;SDS011;24368;52.156;20.788;2023-12-14T04:04:51;25.80;;;16.10;;
38611;SDS011;24368;52.156;20.788;2023-12-14T04:09:53;24.30;;;16.60;;
38611;SDS011;24368;52.156;20.788;2023-12-14T04:14:55;26.60;;;16.90;;
38611;SDS011;24368;52.156;20.788;2023-12-14T04:19:56;27.10;;;17.70;;
38611;SDS011;24368;52.156;20.788;2023-12-14T04:24:58;29.30;;;17.70;;
38611;SDS011;24368;52.156;20.788;2023-12-14T04:30:00;27.30;;;18.00;;
38611;SDS011;24368;52.156;20.788;2023-12-14T04:35:02;26.90;;;16.60;;
38611;SDS011;24368;52.156;20.788;2023-12-14T04:40:05;26.40;;;17.20;;
38611;SDS011;24368;52.156;20.788;2023-12-14T04:45:08;24.60;;;16.30;;
38611;SDS011;24368;52.156;20.788;2023-12-14T04:50:14;24.80;;;16.80;;
38611;SDS011;24368;52.156;20.788;2023-12-14T04:55:15;26.70;;;16.50;;
38611;SDS011;24368;52.156;20.788;2023-12-14T05:00:17;26.90;;;17.00;;
38611;SDS011;24368;52.156;20.788;2023-12-14T05:05:19;27.10;;;17.80;;
38611;SDS011;24368;52.156;20.788;2023-12-14T05:10:21;25.70;;;16.70;;
38611;SDS011;24368;52.156;20.788;2023-12-14T05:15:23;22.80;;;16.90;;
38611;SDS011;24368;52.156;20.788;2023-12-14T05:20:24;31.30;;;19.30;;
38611;SDS011;24368;52.156;20.788;2023-12-14T05:25:26;32.30;;;20.50;;
38611;SDS011;24368;52.156;20.788;2023-12-14T05:30:28;32.10;;;19.70;;
38611;SDS011;24368;52.156;20.788;2023-12-14T05:35:31;30.00;;;19.80;;
38611;SDS011;24368;52.156;20.788;2023-12-14T05:40:32;30.80;;;20.50;;
38611;SDS011;24368;52.156;20.788;2023-12-14T05:45:34;38.00;;;23.60;;
38611;SDS011;24368;52.156;20.788;2023-12-14T05:50:36;41.30;;;24.20;;
38611;SDS011;24368;52.156;20.788;2023-12-14T05:55:38;41.80;;;24.20;;
38611;SDS011;24368;52.156;20.788;2023-12-14T06:00:41;43.70;;;24.50;;
38611;SDS011;24368;52.156;20.788;2023-12-14T06:05:43;43.60;;;23.70;;
38611;SDS011;24368;52.156;20.788;2023-12-14T06:10:45;41.70;;;25.10;;
38611;SDS011;24368;52.156;20.788;2023-12-14T06:15:46;44.40;;;24.20;;
38611;SDS011;24368;52.156;20.788;2023-12-14T06:20:48;42.30;;;24.60;;
38611;SDS011;24368;52.156;20.788;2023-12-14T06:25:50;42.60;;;23.20;;
38611;SDS011;24368;52.156;20.788;2023-12-14T06:30:52;42.40;;;22.20;;
38611;SDS011;24368;52.156;20.788;2023-12-14T06:35:54;39.20;;;22.20;;
38611;SDS011;24368;52.156;20.788;2023-12-14T06:40:56;40.20;;;23.10;;
38611;SDS011;24368;52.156;20.788;2023-12-14T06:45:57;41.50;;;23.60;;
38611;SDS011;24368;52.156;20.788;2023-12-14T06:50:59;43.00;;;22.50;;
38611;SDS011;24368;52.156;20.788;2023-12-14T06:56:01;39.60;;;22.80;;
38611;SDS011;24368;52.156;20.788;2023-12-14T07:01:03;40.50;;;23.20;;
38611;SDS011;24368;52.156;20.788;2023-12-14T07:06:05;43.60;;;21.70;;
38611;SDS011;24368;52.156;20.788;2023-12-14T07:11:08;42.00;;;22.90;;
38611;SDS011;24368;52.156;20.788;2023-12-14T07:16:10;41.90;;;23.90;;
38611;SDS011;24368;52.156;20.788;2023-12-14T07:21:12;49.30;;;24.60;;
38611;SDS011;24368;52.156;20.788;2023-12-14T07:26:14;42.70;;;24.40;;
38611;SDS011;24368;52.156;20.788;2023-12-14T07:31:16;45.80;;;25.20;;
38611;SDS011;24368;52.156;20.788;2023-12-14T07:36:18;36.00;;;21.90;;
38611;SDS011;24368;52.156;20.788;2023-12-14T07:41:20;33.80;;;21.00;;
38611;SDS011;24368;52.156;20.788;2023-12-14T07:46:24;37.40;;;22.50;;
38611;SDS011;24368;52.156;20.788;2023-12-14T07:51:26;38.80;;;24.50;;
38611;SDS011;24368;52.156;20.788;2023-12-14T07:56:29;39.30;;;25.20;;
38611;SDS011;24368;52.156;20.788;2023-12-14T08:01:30;34.00;;;22.70;;
38611;SDS011;24368;52.156;20.788;2023-12-14T08:06:32;40.10;;;23.70;;
38611;SDS011;24368;52.156;20.788;2023-12-14T08:11:34;38.10;;;23.70;;
38611;SDS011;24368;52.156;20.788;2023-12-14T08:16:36;40.90;;;22.90;;
38611;SDS011;24368;52.156;20.788;2023-12-14T08:21:38;39.00;;;20.50;;
38611;SDS011;24368;52.156;20.788;2023-12-14T08:26:40;35.30;;;22.10;;
38611;SDS011;24368;52.156;20.788;2023-12-14T08:31:41;36.10;;;20.90;;
38611;SDS011;24368;52.156;20.788;2023-12-14T08:36:43;38.50;;;22.00;;
38611;SDS011;24368;52.156;20.788;2023-12-14T08:41:46;41.50;;;24.00;;
38611;SDS011;24368;52.156;20.788;2023-12-14T08:46:48;35.40;;;21.40;;
38611;SDS011;24368;52.156;20.788;2023-12-14T08:51:50;35.50;;;20.50;;
38611;SDS011;24368;52.156;20.788;2023-12-14T08:56:52;34.70;;;20.20;;
38611;SDS011;24368;52.156;20.788;2023-12-14T09:01:54;38.10;;;21.30;;
38611;SDS011;24368;52.156;20.788;2023-12-14T09:06:56;36.10;;;22.30;;
38611;SDS011;24368;52.156;20.788;2023-12-14T09:11:58;37.90;;;24.80;;
38611;SDS011;24368;52.156;20.788;2023-12-14T09:16:59;38.70;;;24.60;;
38611;SDS011;24368;52.156;20.788;2023-12-14T09:22:01;28.00;;;19.20;;
38611;SDS011;24368;52.156;20.788;2023-12-14T09:27:03;26.40;;;18.50;;
38611;SDS011;24368;52.156;20.788;2023-12-14T09:32:07;30.90;;;18.30;;
38611;SDS011;24368;52.156;20.788;2023-12-14T09:37:10;31.60;;;18.60;;
38611;SDS011;24368;52.156;20.788;2023-12-14T09:42:12;30.40;;;18.00;;
38611;SDS011;24368;52.156;20.788;2023-12-14T09:47:20;28.30;;;16.80;;
38611;SDS011;24368;52.156;20.788;2023-12-14T09:52:22;23.70;;;15.50;;
38611;SDS011;24368;52.156;20.788;2023-12-14T09:57:24;24.80;;;15.10;;
38611;SDS011;24368;52.156;20.788;2023-12-14T10:02:27;25.90;;;17.00;;
38611;SDS011;24368;52.156;20.788;2023-12-14T10:07:29;24.50;;;16.20;;
38611;SDS011;24368;52.156;20.788;2023-12-14T10:12:32;24.10;;;15.50;;
38611;SDS011;24368;52.156;20.788;2023-12-14T10:17:52;28.10;;;16.70;;
38611;SDS011;24368;52.156;20.788;2023-12-14T10:22:55;28.30;;;18.10;;
38611;SDS011;24368;52.156;20.788;2023-12-14T10:27:57;24.30;;;16.30;;
38611;SDS011;24368;52.156;20.788;2023-12-14T10:33:01;24.90;;;16.80;;
38611;SDS011;24368;52.156;20.788;2023-12-14T10:38:03;30.10;;;17.80;;
38611;SDS011;24368;52.156;20.788;2023-12-14T10:43:06;31.00;;;17.70;;
38611;SDS011;24368;52.156;20.788;2023-12-14T10:48:08;32.30;;;19.10;;
38611;SDS011;24368;52.156;20.788;2023-12-14T10:53:11;26.20;;;16.70;;
38611;SDS011;24368;52.156;20.788;2023-12-14T10:58:13;28.00;;;16.60;;
38611;SDS011;24368;52.156;20.788;2023-12-14T11:03:15;28.40;;;16.90;;
38611;SDS011;24368;52.156;20.788;2023-12-14T11:08:19;28.30;;;16.80;;
38611;SDS011;24368;52.156;20.788;2023-12-14T11:13:22;23.30;;;16.30;;
38611;SDS011;24368;52.156;20.788;2023-12-14T11:18:25;23.60;;;16.60;;
38611;SDS011;24368;52.156;20.788;2023-12-14T11:23:31;26.90;;;16.30;;
38611;SDS011;24368;52.156;20.788;2023-12-14T11:28:36;26.20;;;17.20;;
38611;SDS011;24368;52.156;20.788;2023-12-14T11:33:39;26.10;;;16.50;;
38611;SDS011;24368;52.156;20.788;2023-12-14T11:38:42;23.10;;;14.90;;
38611;SDS011;24368;52.156;20.788;2023-12-14T11:43:45;25.90;;;16.10;;
38611;SDS011;24368;52.156;20.788;2023-12-14T11:48:47;21.10;;;14.10;;
38611;SDS011;24368;52.156;20.788;2023-12-14T11:53:50;25.50;;;15.90;;
38611;SDS011;24368;52.156;20.788;2023-12-14T11:58:52;38.50;;;24.00;;
38611;SDS011;24368;52.156;20.788;2023-12-14T12:04:08;26.30;;;16.30;;
38611;SDS011;24368;52.156;20.788;2023-12-14T12:09:11;25.90;;;16.30;;
38611;SDS011;24368;52.156;20.788;2023-12-14T12:14:14;24.60;;;15.30;;
38611;SDS011;24368;52.156;20.788;2023-12-14T12:19:16;24.00;;;14.90;;
38611;SDS011;24368;52.156;20.788;2023-12-14T12:24:18;20.70;;;13.60;;
38611;SDS011;24368;52.156;20.788;2023-12-14T12:29:20;22.30;;;13.10;;
38611;SDS011;24368;52.156;20.788;2023-12-14T12:34:22;22.20;;;14.80;;
38611;SDS011;24368;52.156;20.788;2023-12-14T12:39:24;20.30;;;13.10;;
38611;SDS011;24368;52.156;20.788;2023-12-14T12:44:27;19.50;;;13.20;;
38611;SDS011;24368;52.156;20.788;2023-12-14T12:49:29;21.80;;;13.50;;
38611;SDS011;24368;52.156;20.788;2023-12-14T12:54:31;19.70;;;14.10;;
38611;SDS011;24368;52.156;20.788;2023-12-14T12:59:34;20.80;;;13.70;;
38611;SDS011;24368;52.156;20.788;2023-12-14T13:04:36;23.30;;;14.90;;
38611;SDS011;24368;52.156;20.788;2023-12-14T13:09:38;23.90;;;15.50;;
38611;SDS011;24368;52.156;20.788;2023-12-14T13:14:40;25.30;;;15.00;;
38611;SDS011;24368;52.156;20.788;2023-12-14T13:19:43;26.40;;;16.90;;
38611;SDS011;24368;52.156;20.788;2023-12-14T13:24:46;23.60;;;15.50;;
38611;SDS011;24368;52.156;20.788;2023-12-14T13:29:47;21.50;;;15.50;;
38611;SDS011;24368;52.156;20.788;2023-12-14T13:34:49;23.30;;;16.00;;
38611;SDS011;24368;52.156;20.788;2023-12-14T13:39:51;24.70;;;15.70;;
38611;SDS011;24368;52.156;20.788;2023-12-14T13:44:54;25.90;;;17.80;;
38611;SDS011;24368;52.156;20.788;2023-12-14T13:49:56;24.30;;;16.60;;
38611;SDS011;24368;52.156;20.788;2023-12-14T13:54:57;24.80;;;17.00;;
38611;SDS011;24368;52.156;20.788;2023-12-14T14:00:00;25.90;;;16.70;;
38611;SDS011;24368;52.156;20.788;2023-12-14T14:05:02;26.00;;;16.70;;
38611;SDS011;24368;52.156;20.788;2023-12-14T14:10:05;24.80;;;16.20;;
38611;SDS011;24368;52.156;20.788;2023-12-14T14:15:07;28.60;;;18.40;;
38611;SDS011;24368;52.156;20.788;2023-12-14T14:20:10;26.70;;;17.10;;
38611;SDS011;24368;52.156;20.788;2023-12-14T14:25:12;28.50;;;18.00;;
38611;SDS011;24368;52.156;20.788;2023-12-14T14:30:13;26.40;;;16.30;;
38611;SDS011;24368;52.156;20.788;2023-12-14T14:35:16;25.70;;;14.60;;
38611;SDS011;24368;52.156;20.788;2023-12-14T14:40:18;22.30;;;14.90;;
38611;SDS011;24368;52.156;20.788;2023-12-14T14:45:19;21.10;;;15.00;;
38611;SDS011;24368;52.156;20.788;2023-12-14T14:50:21;19.60;;;13.90;;
38611;SDS011;24368;52.156;20.788;2023-12-14T14:55:23;22.30;;;14.40;;
38611;SDS011;24368;52.156;20.788;2023-12-14T15:00:27;22.90;;;14.60;;
38611;SDS011;24368;52.156;20.788;2023-12-14T15:05:28;20.40;;;14.40;;
38611;SDS011;24368;52.156;20.788;2023-12-14T15:10:34;23.60;;;16.70;;
38611;SDS011;24368;52.156;20.788;2023-12-14T15:15:36;22.30;;;15.30;;
38611;SDS011;24368;52.156;20.788;2023-12-14T15:20:39;24.40;;;15.40;;
38611;SDS011;24368;52.156;20.788;2023-12-14T15:25:42;23.80;;;15.00;;
38611;SDS011;24368;52.156;20.788;2023-12-14T15:30:44;23.70;;;15.10;;
38611;SDS011;24368;52.156;20.788;2023-12-14T15:35:45;23.70;;;15.00;;
38611;SDS011;24368;52.156;20.788;2023-12-14T15:40:48;20.70;;;14.00;;
38611;SDS011;24368;52.156;20.788;2023-12-14T15:45:49;21.60;;;14.00;;
38611;SDS011;24368;52.156;20.788;2023-12-14T15:50:51;25.20;;;14.70;;
38611;SDS011;24368;52.156;20.788;2023-12-14T15:55:53;22.90;;;14.30;;
38611;SDS011;24368;52.156;20.788;2023-12-14T16:00:55;23.10;;;15.60;;
38611;SDS011;24368;52.156;20.788;2023-12-14T16:05:57;25.70;;;16.20;;
38611;SDS011;24368;52.156;20.788;2023-12-14T16:10:58;24.80;;;14.70;;
38611;SDS011;24368;52.156;20.788;2023-12-14T16:16:00;23.10;;;15.40;;
38611;SDS011;24368;52.156;20.788;2023-12-14T16:21:02;22.90;;;15.00;;
38611;SDS011;24368;52.156;20.788;2023-12-14T16:26:04;22.10;;;14.10;;
38611;SDS011;24368;52.156;20.788;2023-12-14T16:31:06;17.50;;;12.60;;
38611;SDS011;24368;52.156;20.788;2023-12-14T16:36:09;18.60;;;13.60;;
38611;SDS011;24368;52.156;20.788;2023-12-14T16:41:19;19.90;;;14.20;;
38611;SDS011;24368;52.156;20.788;2023-12-14T16:46:22;21.80;;;14.80;;
38611;SDS011;24368;52.156;20.788;2023-12-14T16:51:24;20.90;;;15.60;;
38611;SDS011;24368;52.156;20.788;2023-12-14T16:56:29;19.90;;;15.50;;
38611;SDS011;24368;52.156;20.788;2023-12-14T17:01:33;17.10;;;13.60;;
38611;SDS011;24368;52.156;20.788;2023-12-14T17:06:34;20.70;;;14.10;;
38611;SDS011;24368;52.156;20.788;2023-12-14T17:11:36;16.40;;;12.10;;
38611;SDS011;24368;52.156;20.788;2023-12-14T17:16:38;20.40;;;13.10;;
38611;SDS011;24368;52.156;20.788;2023-12-14T17:21:40;17.90;;;13.00;;
38611;SDS011;24368;52.156;20.788;2023-12-14T17:26:42;18.60;;;13.00;;
38611;SDS011;24368;52.156;20.788;2023-12-14T17:31:44;16.50;;;12.20;;
38611;SDS011;24368;52.156;20.788;2023-12-14T17:36:46;18.70;;;14.00;;
38611;SDS011;24368;52.156;20.788;2023-12-14T17:41:48;22.70;;;15.50;;
38611;SDS011;24368;52.156;20.788;2023-12-14T17:46:50;20.50;;;13.50;;
38611;SDS011;24368;52.156;20.788;2023-12-14T17:51:51;18.20;;;12.20;;
38611;SDS011;24368;52.156;20.788;2023-12-14T17:56:53;16.70;;;12.30;;
38611;SDS011;24368;52.156;20.788;2023-12-14T18:01:55;19.50;;;12.80;;
38611;SDS011;24368;52.156;20.788;2023-12-14T18:06:58;18.60;;;13.20;;
38611;SDS011;24368;52.156;20.788;2023-12-14T18:12:00;17.40;;;12.20;;
38611;SDS011;24368;52.156;20.788;2023-12-14T18:17:02;17.10;;;12.50;;
38611;SDS011;24368;52.156;20.788;2023-12-14T18:22:04;18.70;;;13.40;;
38611;SDS011;24368;52.156;20.788;2023-12-14T18:27:06;20.00;;;13.20;;
38611;SDS011;24368;52.156;20.788;2023-12-14T18:32:07;20.40;;;14.00;;
38611;SDS011;24368;52.156;20.788;2023-12-14T18:37:09;19.00;;;13.40;;
38611;SDS011;24368;52.156;20.788;2023-12-14T18:42:15;19.00;;;14.00;;
38611;SDS011;24368;52.156;20.788;2023-12-14T18:47:16;19.20;;;12.80;;
38611;SDS011;24368;52.156;20.788;2023-12-14T18:52:18;20.20;;;12.90;;
38611;SDS011;24368;52.156;20.788;2023-12-14T18:57:21;18.10;;;12.90;;
38611;SDS011;24368;52.156;20.788;2023-12-14T19:02:23;19.70;;;13.00;;
38611;SDS011;24368;52.156;20.788;2023-12-14T19:07:29;18.60;;;13.30;;
38611;SDS011;24368;52.156;20.788;2023-12-14T19:12:30;18.60;;;13.20;;
38611;SDS011;24368;52.156;20.788;2023-12-14T19:17:32;18.60;;;12.60;;
38611;SDS011;24368;52.156;20.788;2023-12-14T19:22:34;27.10;;;17.70;;
38611;SDS011;24368;52.156;20.788;2023-12-14T19:27:39;17.60;;;12.90;;
38611;SDS011;24368;52.156;20.788;2023-12-14T19:32:42;18.90;;;12.40;;
38611;SDS011;24368;52.156;20.788;2023-12-14T19:37:45;17.90;;;11.90;;
38611;SDS011;24368;52.156;20.788;2023-12-14T19:42:49;15.10;;;11.80;;
38611;SDS011;24368;52.156;20.788;2023-12-14T19:47:51;17.20;;;11.40;;
38611;SDS011;24368;52.156;20.788;2023-12-14T19:52:53;17.00;;;12.50;;
38611;SDS011;24368;52.156;20.788;2023-12-14T19:57:54;17.10;;;11.20;;
38611;SDS011;24368;52.156;20.788;2023-12-14T20:02:56;15.80;;;11.20;;
38611;SDS011;24368;52.156;20.788;2023-12-14T20:07:58;17.90;;;12.50;;
38611;SDS011;24368;52.156;20.788;2023-12-14T20:13:00;16.70;;;12.10;;
38611;SDS011;24368;52.156;20.788;2023-12-14T20:18:04;14.30;;;11.00;;
38611;SDS011;24368;52.156;20.788;2023-12-14T20:23:06;16.70;;;11.90;;
38611;SDS011;24368;52.156;20.788;2023-12-14T20:28:08;15.50;;;12.10;;
38611;SDS011;24368;52.156;20.788;2023-12-14T20:33:09;13.90;;;11.00;;
38611;SDS011;24368;52.156;20.788;2023-12-14T20:38:12;17.60;;;12.00;;
38611;SDS011;24368;52.156;20.788;2023-12-14T20:43:13;19.20;;;13.90;;
38611;SDS011;24368;52.156;20.788;2023-12-14T20:48:15;18.70;;;14.10;;
38611;SDS011;24368;52.156;20.788;2023-12-14T20:53:17;12.80;;;10.80;;
38611;SDS011;24368;52.156;20.788;2023-12-14T20:58:19;11.20;;;9.60;;
38611;SDS011;24368;52.156;20.788;2023-12-14T21:03:21;12.70;;;10.80;;
38611;SDS011;24368;52.156;20.788;2023-12-14T21:08:26;12.30;;;9.20;;
38611;SDS011;24368;52.156;20.788;2023-12-14T21:13:28;12.70;;;10.10;;
38611;SDS011;24368;52.156;20.788;2023-12-14T21:18:29;12.60;;;9.40;;
38611;SDS011;24368;52.156;20.788;2023-12-14T21:23:31;10.70;;;9.60;;
38611;SDS011;24368;52.156;20.788;2023-12-14T21:28:33;15.40;;;11.20;;
38611;SDS011;24368;52.156;20.788;2023-12-14T21:33:36;12.10;;;10.10;;
38611;SDS011;24368;52.156;20.788;2023-12-14T21:38:38;11.60;;;10.40;;
38611;SDS011;24368;52.156;20.788;2023-12-14T21:43:40;13.80;;;10.70;;
38611;SDS011;24368;52.156;20.788;2023-12-14T21:48:42;13.10;;;11.70;;
38611;SDS011;24368;52.156;20.788;2023-12-14T21:53:44;11.30;;;10.10;;
38611;SDS011;24368;52.156;20.788;2023-12-14T21:58:46;11.80;;;10.30;;
38611;SDS011;24368;52.156;20.788;2023-12-14T22:03:47;12.40;;;10.90;;
38611;SDS011;24368;52.156;20.788;2023-12-14T22:08:49;12.30;;;11.00;;
38611;SDS011;24368;52.156;20.788;2023-12-14T22:13:51;11.50;;;10.30;;
38611;SDS011;24368;52.156;20.788;2023-12-14T22:18:53;11.20;;;9.90;;
38611;SDS011;24368;52.156;20.788;2023-12-14T22:23:54;11.90;;;10.70;;
38611;SDS011;24368;52.156;20.788;2023-12-14T22:28:56;12.60;;;10.40;;
38611;SDS011;24368;52.156;20.788;2023-12-14T22:33:58;9.60;;;8.60;;
38611;SDS011;24368;52.156;20.788;2023-12-14T22:39:01;10.40;;;8.90;;
38611;SDS011;24368;52.156;20.788;2023-12-14T22:44:02;10.50;;;7.60;;
38611;SDS011;24368;52.156;20.788;2023-12-14T22:49:04;7.50;;;6.70;;
38611;SDS011;24368;52.156;20.788;2023-12-14T22:54:06;7.40;;;6.70;;
38611;SDS011;24368;52.156;20.788;2023-12-14T22:59:08;7.40;;;6.50;;
38611;SDS011;24368;52.156;20.788;2023-12-14T23:04:09;6.50;;;5.80;;
38611;SDS011;24368;52.156;20.788;2023-12-14T23:09:11;5.40;;;4.80;;
38611;SDS011;24368;52.156;20.788;2023-12-14T23:14:14;5.10;;;4.60;;
38611;SDS011;24368;52.156;20.788;2023-12-14T23:19:16;6.40;;;5.10;;
38611;SDS011;24368;52.156;20.788;2023-12-14T23:24:18;6.00;;;5.10;;
38611;SDS011;24368;52.156;20.788;2023-12-14T23:29:21;5.40;;;4.50;;
38611;SDS011;24368;52.156;20.788;2023-12-14T23:34:23;6.00;;;5.10;;
38611;SDS011;24368;52.156;20.788;2023-12-14T23:39:24;6.80;;;5.50;;
38611;SDS011;24368;52.156;20.788;2023-12-14T23:44:26;7.20;;;5.90;;
38611;SDS011;24368;52.156;20.788;2023-12-14T23:49:29;7.60;;;6.00;;
38611;SDS011;24368;52.156;20.788;2023-12-14T23:54:31;7.10;;;6.30;;
38611;SDS011;24368;52.156;20.788;2023-12-14T23:59:32;7.80;;;6.20;;
